createdAt,value
2023-07-14T00:00:37.488Z,1012.61
2023-07-14T00:01:37.768Z,1012.64
2023-07-14T00:02:37.992Z,1012.63
2023-07-14T00:03:38.238Z,1012.62
2023-07-14T00:04:38.479Z,1012.60
2023-07-14T00:05:38.735Z,1012.59
2023-07-14T00:06:38.971Z,1012.55
2023-07-14T00:07:39.224Z,1012.56
2023-07-14T00:08:39.483Z,1012.57
2023-07-14T00:09:39.731Z,1012.57
2023-07-14T00:10:40.009Z,1012.59
2023-07-14T00:11:40.310Z,1012.58
2023-07-14T00:12:40.543Z,1012.52
2023-07-14T00:13:40.778Z,1012.57
2023-07-14T00:14:41.023Z,1012.52
2023-07-14T00:15:41.292Z,1012.48
2023-07-14T00:16:41.561Z,1012.50
2023-07-14T00:17:41.878Z,1012.48
2023-07-14T00:18:42.090Z,1012.44
2023-07-14T00:19:42.356Z,1012.42
2023-07-14T00:20:42.603Z,1012.44
2023-07-14T00:21:42.865Z,1012.46
2023-07-14T00:22:43.122Z,1012.43
2023-07-14T00:23:43.360Z,1012.39
2023-07-14T00:24:43.606Z,1012.38
2023-07-14T00:25:43.888Z,1012.39
2023-07-14T00:26:44.137Z,1012.34
2023-07-14T00:27:44.393Z,1012.33
2023-07-14T00:28:44.630Z,1012.31
2023-07-14T00:29:44.880Z,1012.35
2023-07-14T00:30:45.162Z,1012.37
2023-07-14T00:31:45.440Z,1012.37
2023-07-14T00:32:45.670Z,1012.38
2023-07-14T00:33:45.897Z,1012.38
2023-07-14T00:34:46.128Z,1012.42
2023-07-14T00:35:46.471Z,1012.41
2023-07-14T00:36:46.701Z,1012.43
2023-07-14T00:37:46.931Z,1012.42
2023-07-14T00:38:47.179Z,1012.39
2023-07-14T00:39:47.439Z,1012.38
2023-07-14T00:40:47.767Z,1012.35
2023-07-14T00:41:47.983Z,1012.31
2023-07-14T00:42:48.228Z,1012.33
2023-07-14T00:43:48.560Z,1012.38
2023-07-14T00:44:48.832Z,1012.32
2023-07-14T00:45:49.080Z,1012.36
2023-07-14T00:46:49.307Z,1012.35
2023-07-14T00:47:49.610Z,1012.37
2023-07-14T00:48:49.813Z,1012.35
2023-07-14T00:49:50.045Z,1012.34
2023-07-14T00:50:50.312Z,1012.39
2023-07-14T00:51:50.556Z,1012.36
2023-07-14T00:52:50.793Z,1012.37
2023-07-14T00:53:51.038Z,1012.39
2023-07-14T00:54:51.289Z,1012.33
2023-07-14T00:55:51.541Z,1012.33
2023-07-14T00:56:51.794Z,1012.35
2023-07-14T00:57:52.024Z,1012.35
2023-07-14T00:58:52.275Z,1012.31
2023-07-14T00:59:52.521Z,1012.31
2023-07-14T01:00:52.799Z,1012.34
2023-07-14T01:01:53.075Z,1012.34
2023-07-14T01:02:53.411Z,1012.40
2023-07-14T01:03:53.694Z,1012.36
2023-07-14T01:04:53.840Z,1012.36
2023-07-14T01:05:54.081Z,1012.38
2023-07-14T01:06:54.324Z,1012.35
2023-07-14T01:07:54.559Z,1012.35
2023-07-14T01:08:54.811Z,1012.35
2023-07-14T01:10:02.066Z,1012.36
2023-07-14T01:10:55.400Z,1012.33
2023-07-14T01:11:55.670Z,1012.32
2023-07-14T01:12:55.894Z,1012.31
2023-07-14T01:13:56.154Z,1012.27
2023-07-14T01:14:56.413Z,1012.29
2023-07-14T01:15:56.669Z,1012.28
2023-07-14T01:16:56.894Z,1012.27
2023-07-14T01:17:57.240Z,1012.31
2023-07-14T01:18:57.487Z,1012.31
2023-07-14T01:19:57.725Z,1012.29
2023-07-14T01:20:57.987Z,1012.33
2023-07-14T01:21:58.228Z,1012.34
2023-07-14T01:22:58.554Z,1012.32
2023-07-14T01:23:58.778Z,1012.35
2023-07-14T01:24:59.024Z,1012.37
2023-07-14T01:25:59.295Z,1012.35
2023-07-14T01:26:59.535Z,1012.40
2023-07-14T01:27:59.785Z,1012.38
2023-07-14T01:29:00.036Z,1012.40
2023-07-14T01:30:00.284Z,1012.44
2023-07-14T01:31:00.598Z,1012.43
2023-07-14T01:32:00.820Z,1012.43
2023-07-14T01:33:01.101Z,1012.41
2023-07-14T01:34:01.333Z,1012.46
2023-07-14T01:35:01.605Z,1012.42
2023-07-14T01:36:01.860Z,1012.46
2023-07-14T01:37:02.080Z,1012.46
2023-07-14T01:38:02.323Z,1012.44
2023-07-14T01:39:02.566Z,1012.44
2023-07-14T01:40:02.818Z,1012.43
2023-07-14T01:41:03.078Z,1012.49
2023-07-14T01:42:03.323Z,1012.48
2023-07-14T01:43:03.574Z,1012.46
2023-07-14T01:44:03.810Z,1012.45
2023-07-14T01:45:04.057Z,1012.48
2023-07-14T01:46:04.324Z,1012.47
2023-07-14T01:47:04.640Z,1012.41
2023-07-14T01:48:04.906Z,1012.43
2023-07-14T01:49:05.132Z,1012.45
2023-07-14T01:50:05.371Z,1012.40
2023-07-14T01:51:05.667Z,1012.38
2023-07-14T01:52:05.913Z,1012.37
2023-07-14T01:53:06.136Z,1012.37
2023-07-14T01:54:06.369Z,1012.37
2023-07-14T01:55:06.644Z,1012.34
2023-07-14T01:56:06.893Z,1012.37
2023-07-14T01:57:07.138Z,1012.32
2023-07-14T01:58:07.380Z,1012.37
2023-07-14T01:59:07.634Z,1012.35
2023-07-14T02:00:07.884Z,1012.34
2023-07-14T02:01:08.189Z,1012.37
2023-07-14T02:02:08.421Z,1012.41
2023-07-14T02:03:08.717Z,1012.39
2023-07-14T02:04:08.932Z,1012.41
2023-07-14T02:05:09.192Z,1012.42
2023-07-14T02:06:09.443Z,1012.38
2023-07-14T02:07:09.687Z,1012.35
2023-07-14T02:08:09.929Z,1012.38
2023-07-14T02:09:10.192Z,1012.37
2023-07-14T02:10:10.429Z,1012.34
2023-07-14T02:11:10.830Z,1012.37
2023-07-14T02:12:10.978Z,1012.36
2023-07-14T02:13:11.211Z,1012.31
2023-07-14T02:14:11.469Z,1012.34
2023-07-14T02:15:11.696Z,1012.34
2023-07-14T02:16:11.944Z,1012.30
2023-07-14T02:17:12.228Z,1012.30
2023-07-14T02:18:12.453Z,1012.31
2023-07-14T02:19:12.706Z,1012.30
2023-07-14T02:20:12.954Z,1012.28
2023-07-14T02:21:13.421Z,1012.28
2023-07-14T02:22:13.487Z,1012.29
2023-07-14T02:23:13.730Z,1012.25
2023-07-14T02:24:13.970Z,1012.28
2023-07-14T02:25:14.252Z,1012.29
2023-07-14T02:26:14.495Z,1012.26
2023-07-14T02:27:14.733Z,1012.24
2023-07-14T02:28:14.973Z,1012.25
2023-07-14T02:29:15.226Z,1012.30
2023-07-14T02:30:15.465Z,1012.34
2023-07-14T02:31:15.922Z,1012.33
2023-07-14T02:32:16.083Z,1012.35
2023-07-14T02:33:16.326Z,1012.40
2023-07-14T02:34:16.558Z,1012.39
2023-07-14T02:35:16.815Z,1012.38
2023-07-14T02:36:17.063Z,1012.37
2023-07-14T02:37:17.292Z,1012.41
2023-07-14T02:38:17.533Z,1012.39
2023-07-14T02:39:17.761Z,1012.40
2023-07-14T02:40:18.005Z,1012.40
2023-07-14T02:41:18.246Z,1012.42
2023-07-14T02:42:18.504Z,1012.38
2023-07-14T02:43:18.726Z,1012.38
2023-07-14T02:44:18.970Z,1012.40
2023-07-14T02:45:19.197Z,1012.38
2023-07-14T02:46:19.476Z,1012.39
2023-07-14T02:47:19.689Z,1012.36
2023-07-14T02:48:19.936Z,1012.35
2023-07-14T02:49:20.176Z,1012.41
2023-07-14T02:50:20.416Z,1012.41
2023-07-14T02:51:20.692Z,1012.43
2023-07-14T02:52:20.922Z,1012.38
2023-07-14T02:53:21.166Z,1012.40
2023-07-14T02:54:21.407Z,1012.39
2023-07-14T02:55:21.635Z,1012.37
2023-07-14T02:56:21.882Z,1012.36
2023-07-14T02:57:22.138Z,1012.36
2023-07-14T02:58:22.440Z,1012.38
2023-07-14T02:59:22.649Z,1012.38
2023-07-14T03:00:22.883Z,1012.37
2023-07-14T03:01:23.177Z,1012.30
2023-07-14T03:02:23.406Z,1012.30
2023-07-14T03:03:23.724Z,1012.33
2023-07-14T03:04:23.922Z,1012.28
2023-07-14T03:05:24.157Z,1012.26
2023-07-14T03:06:24.407Z,1012.26
2023-07-14T03:07:24.650Z,1012.25
2023-07-14T03:08:24.900Z,1012.27
2023-07-14T03:09:25.143Z,1012.25
2023-07-14T03:10:25.401Z,1012.30
2023-07-14T03:11:25.661Z,1012.30
2023-07-14T03:12:25.914Z,1012.33
2023-07-14T03:13:26.169Z,1012.36
2023-07-14T03:14:26.420Z,1012.36
2023-07-14T03:15:26.672Z,1012.34
2023-07-14T03:16:27.022Z,1012.30
2023-07-14T03:17:27.253Z,1012.35
2023-07-14T03:18:27.502Z,1012.32
2023-07-14T03:19:27.760Z,1012.34
2023-07-14T03:20:28.022Z,1012.34
2023-07-14T03:21:28.274Z,1012.34
2023-07-14T03:22:28.596Z,1012.32
2023-07-14T03:23:28.843Z,1012.32
2023-07-14T03:24:29.093Z,1012.29
2023-07-14T03:25:29.338Z,1012.26
2023-07-14T03:26:29.618Z,1012.24
2023-07-14T03:27:29.888Z,1012.27
2023-07-14T03:28:30.137Z,1012.27
2023-07-14T03:29:30.381Z,1012.23
2023-07-14T03:30:30.650Z,1012.29
2023-07-14T03:31:30.938Z,1012.27
2023-07-14T03:32:31.230Z,1012.26
2023-07-14T03:33:31.497Z,1012.26
2023-07-14T03:34:31.729Z,1012.27
2023-07-14T03:35:32.003Z,1012.29
2023-07-14T03:36:32.283Z,1012.30
2023-07-14T03:37:32.572Z,1012.28
2023-07-14T03:38:32.851Z,1012.25
2023-07-14T03:39:33.121Z,1012.21
2023-07-14T03:40:33.397Z,1012.19
2023-07-14T03:41:33.799Z,1012.19
2023-07-14T03:42:33.911Z,1012.17
2023-07-14T03:43:34.174Z,1012.18
2023-07-14T03:44:34.446Z,1012.21
2023-07-14T03:45:34.726Z,1012.20
2023-07-14T03:46:35.089Z,1012.22
2023-07-14T03:47:35.312Z,1012.25
2023-07-14T03:48:35.579Z,1012.18
2023-07-14T03:49:35.856Z,1012.19
2023-07-14T03:50:36.119Z,1012.20
2023-07-14T03:51:36.398Z,1012.19
2023-07-14T03:52:36.667Z,1012.22
2023-07-14T03:53:36.944Z,1012.17
2023-07-14T03:54:37.234Z,1012.19
2023-07-14T03:55:37.498Z,1012.18
2023-07-14T03:56:37.790Z,1012.20
2023-07-14T03:57:48.709Z,1012.20
2023-07-14T03:58:39.301Z,1012.13
2023-07-14T03:59:38.606Z,1012.14
2023-07-14T04:00:38.869Z,1012.08
2023-07-14T04:01:39.218Z,1012.10
2023-07-14T04:02:39.467Z,1012.14
2023-07-14T04:03:39.763Z,1012.12
2023-07-14T04:04:39.993Z,1012.11
2023-07-14T04:05:40.264Z,1012.16
2023-07-14T04:06:40.591Z,1012.17
2023-07-14T04:07:40.833Z,1012.12
2023-07-14T04:08:41.112Z,1012.15
2023-07-14T04:09:41.397Z,1012.15
2023-07-14T04:10:41.669Z,1012.17
2023-07-14T04:11:41.933Z,1012.19
2023-07-14T04:12:42.218Z,1012.18
2023-07-14T04:13:42.500Z,1012.16
2023-07-14T04:14:42.887Z,1012.15
2023-07-14T04:15:43.123Z,1012.15
2023-07-14T04:16:43.426Z,1012.14
2023-07-14T04:17:43.737Z,1012.09
2023-07-14T04:18:43.984Z,1012.09
2023-07-14T04:19:44.279Z,1012.08
2023-07-14T04:20:44.594Z,1012.08
2023-07-14T04:21:44.873Z,1012.17
2023-07-14T04:22:45.233Z,1012.19
2023-07-14T04:23:45.421Z,1012.12
2023-07-14T04:24:45.656Z,1012.10
2023-07-14T04:25:45.970Z,1012.08
2023-07-14T04:26:46.259Z,1012.12
2023-07-14T04:27:46.554Z,1012.10
2023-07-14T04:28:46.833Z,1012.05
2023-07-14T04:29:47.118Z,1012.06
2023-07-14T04:30:47.436Z,1012.02
2023-07-14T04:31:47.802Z,1012.00
2023-07-14T04:32:48.116Z,1011.95
2023-07-14T04:33:48.380Z,1011.96
2023-07-14T04:34:48.653Z,1011.94
2023-07-14T04:35:48.945Z,1011.95
2023-07-14T04:36:49.232Z,1011.97
2023-07-14T04:37:49.532Z,1011.98
2023-07-14T04:38:49.872Z,1011.96
2023-07-14T04:39:50.145Z,1011.93
2023-07-14T04:40:50.428Z,1011.96
2023-07-14T04:41:50.737Z,1011.91
2023-07-14T04:42:51.014Z,1011.91
2023-07-14T04:43:51.310Z,1011.92
2023-07-14T04:44:51.594Z,1011.92
2023-07-14T04:45:51.904Z,1011.91
2023-07-14T04:46:52.136Z,1011.90
2023-07-14T04:47:52.680Z,1011.92
2023-07-14T04:48:52.746Z,1011.93
2023-07-14T04:49:53.019Z,1011.94
2023-07-14T04:50:53.321Z,1011.91
2023-07-14T04:51:53.603Z,1011.97
2023-07-14T04:52:53.908Z,1011.96
2023-07-14T04:53:54.190Z,1011.95
2023-07-14T04:54:54.456Z,1011.91
2023-07-14T04:55:54.740Z,1011.90
2023-07-14T04:56:55.066Z,1011.95
2023-07-14T04:57:55.340Z,1011.93
2023-07-14T04:58:55.662Z,1011.93
2023-07-14T04:59:55.914Z,1011.92
2023-07-14T05:00:56.284Z,1011.92
2023-07-14T05:01:56.551Z,1011.89
2023-07-14T05:02:56.887Z,1011.91
2023-07-14T05:03:57.220Z,1011.88
2023-07-14T05:05:01.477Z,1011.91
2023-07-14T05:05:57.739Z,1011.86
2023-07-14T05:06:58.031Z,1011.90
2023-07-14T05:07:58.312Z,1011.90
2023-07-14T05:08:58.593Z,1011.85
2023-07-14T05:09:58.879Z,1011.87
2023-07-14T05:10:59.175Z,1011.87
2023-07-14T05:11:59.480Z,1011.82
2023-07-14T05:12:59.810Z,1011.83
2023-07-14T05:14:00.125Z,1011.79
2023-07-14T05:15:00.385Z,1011.81
2023-07-14T05:16:00.707Z,1011.79
2023-07-14T05:17:00.999Z,1011.74
2023-07-14T05:18:01.433Z,1011.80
2023-07-14T05:19:01.610Z,1011.77
2023-07-14T05:20:01.982Z,1011.75
2023-07-14T05:21:02.238Z,1011.73
2023-07-14T05:22:02.542Z,1011.74
2023-07-14T05:23:02.931Z,1011.73
2023-07-14T05:24:05.245Z,1011.74
2023-07-14T05:25:03.405Z,1011.75
2023-07-14T05:26:03.709Z,1011.73
2023-07-14T05:27:04.024Z,1011.73
2023-07-14T05:28:04.308Z,1011.68
2023-07-14T05:29:04.601Z,1011.70
2023-07-14T05:30:04.897Z,1011.71
2023-07-14T05:31:05.253Z,1011.70
2023-07-14T05:32:05.465Z,1011.75
2023-07-14T05:33:05.960Z,1011.64
2023-07-14T05:34:06.036Z,1011.70
2023-07-14T05:35:06.353Z,1011.61
2023-07-14T05:36:06.662Z,1011.60
2023-07-14T05:37:06.992Z,1011.61
2023-07-14T05:38:07.284Z,1011.57
2023-07-14T05:39:07.596Z,1011.57
2023-07-14T05:40:07.916Z,1011.61
2023-07-14T05:41:08.227Z,1011.58
2023-07-14T05:42:08.552Z,1011.63
2023-07-14T05:43:08.856Z,1011.63
2023-07-14T05:44:09.172Z,1011.64
2023-07-14T05:45:09.479Z,1011.69
2023-07-14T05:46:09.864Z,1011.66
2023-07-14T05:47:10.114Z,1011.71
2023-07-14T05:48:10.331Z,1011.61
2023-07-14T05:49:10.509Z,1011.62
2023-07-14T05:50:10.818Z,1011.57
2023-07-14T05:51:11.113Z,1011.57
2023-07-14T05:52:11.443Z,1011.55
2023-07-14T05:53:11.748Z,1011.54
2023-07-14T05:54:12.040Z,1011.51
2023-07-14T05:55:12.370Z,1011.56
2023-07-14T05:56:13.024Z,1011.53
2023-07-14T05:57:12.986Z,1011.60
2023-07-14T05:58:13.295Z,1011.56
2023-07-14T05:59:13.652Z,1011.57
2023-07-14T06:00:13.939Z,1011.60
2023-07-14T06:01:14.282Z,1011.52
2023-07-14T06:02:14.651Z,1011.57
2023-07-14T06:03:15.036Z,1011.52
2023-07-14T06:04:15.214Z,1011.64
2023-07-14T06:05:15.509Z,1011.62
2023-07-14T06:06:16.308Z,1011.68
2023-07-14T06:07:16.132Z,1011.68
2023-07-14T06:08:16.440Z,1011.67
2023-07-14T06:09:16.746Z,1011.64
2023-07-14T06:10:17.065Z,1011.65
2023-07-14T06:11:17.386Z,1011.64
2023-07-14T06:12:17.701Z,1011.64
2023-07-14T06:13:18.007Z,1011.55
2023-07-14T06:14:18.330Z,1011.62
2023-07-14T06:15:18.648Z,1011.64
2023-07-14T06:16:18.973Z,1011.61
2023-07-14T06:17:19.331Z,1011.68
2023-07-14T06:18:19.531Z,1011.68
2023-07-14T06:19:19.822Z,1011.71
2023-07-14T06:20:20.139Z,1011.73
2023-07-14T06:21:20.455Z,1011.67
2023-07-14T06:22:20.781Z,1011.70
2023-07-14T06:23:21.089Z,1011.66
2023-07-14T06:24:21.405Z,1011.60
2023-07-14T06:25:21.708Z,1011.66
2023-07-14T06:26:22.015Z,1011.68
2023-07-14T06:27:22.340Z,1011.60
2023-07-14T06:28:22.644Z,1011.56
2023-07-14T06:29:22.954Z,1011.56
2023-07-14T06:30:23.270Z,1011.55
2023-07-14T06:31:23.670Z,1011.50
2023-07-14T06:32:23.849Z,1011.54
2023-07-14T06:33:24.061Z,1011.39
2023-07-14T06:34:24.397Z,1011.48
2023-07-14T06:35:24.721Z,1011.45
2023-07-14T06:36:25.043Z,1011.43
2023-07-14T06:37:25.379Z,1011.49
2023-07-14T06:38:25.587Z,1011.48
2023-07-14T06:39:25.893Z,1011.45
2023-07-14T06:40:26.258Z,1011.35
2023-07-14T06:41:26.476Z,1011.35
2023-07-14T06:42:26.833Z,1011.34
2023-07-14T06:43:27.133Z,1011.32
2023-07-14T06:44:27.438Z,1011.33
2023-07-14T06:45:27.746Z,1011.36
2023-07-14T06:46:28.098Z,1011.32
2023-07-14T06:47:28.462Z,1011.31
2023-07-14T06:48:28.642Z,1011.28
2023-07-14T06:49:29.422Z,1011.29
2023-07-14T06:50:29.110Z,1011.30
2023-07-14T06:51:29.451Z,1011.34
2023-07-14T06:52:29.755Z,1011.32
2023-07-14T06:53:30.186Z,1011.25
2023-07-14T06:54:30.328Z,1011.24
2023-07-14T06:55:30.641Z,1011.24
2023-07-14T06:56:31.013Z,1011.27
2023-07-14T06:57:31.207Z,1011.24
2023-07-14T06:58:31.523Z,1011.22
2023-07-14T06:59:31.849Z,1011.27
2023-07-14T07:00:32.147Z,1011.25
2023-07-14T07:01:32.502Z,1011.20
2023-07-14T07:02:32.811Z,1011.21
2023-07-14T07:03:33.153Z,1011.14
2023-07-14T07:04:33.356Z,1011.24
2023-07-14T07:05:33.753Z,1011.19
2023-07-14T07:06:34.118Z,1011.17
2023-07-14T07:07:34.244Z,1011.09
2023-07-14T07:08:34.554Z,1011.06
2023-07-14T07:09:34.870Z,1011.07
2023-07-14T07:10:42.187Z,1011.09
2023-07-14T07:11:35.529Z,1011.09
2023-07-14T07:12:35.676Z,1010.99
2023-07-14T07:13:35.991Z,1011.03
2023-07-14T07:14:36.301Z,1011.00
2023-07-14T07:15:36.608Z,1010.98
2023-07-14T07:16:36.978Z,1011.01
2023-07-14T07:17:37.292Z,1011.10
2023-07-14T07:18:37.579Z,1011.04
2023-07-14T07:19:37.906Z,1011.00
2023-07-14T07:20:38.279Z,1011.05
2023-07-14T07:21:38.485Z,1011.06
2023-07-14T07:22:38.775Z,1011.03
2023-07-14T07:23:39.034Z,1011.01
2023-07-14T07:24:39.147Z,1011.04
2023-07-14T07:25:39.461Z,1010.96
2023-07-14T07:26:41.821Z,1011.02
2023-07-14T07:27:40.029Z,1010.96
2023-07-14T07:28:40.321Z,1010.94
2023-07-14T07:29:40.624Z,1011.01
2023-07-14T07:30:40.937Z,1010.99
2023-07-14T07:31:41.330Z,1011.01
2023-07-14T07:32:41.640Z,1011.05
2023-07-14T07:33:41.790Z,1011.06
2023-07-14T07:34:42.098Z,1011.00
2023-07-14T07:35:42.416Z,1011.06
2023-07-14T07:36:42.730Z,1010.97
2023-07-14T07:37:43.043Z,1011.01
2023-07-14T07:38:43.352Z,1010.98
2023-07-14T07:39:43.686Z,1010.92
2023-07-14T07:40:43.995Z,1010.95
2023-07-14T07:41:45.766Z,1010.89
2023-07-14T07:42:44.624Z,1010.98
2023-07-14T07:43:44.985Z,1010.99
2023-07-14T07:44:45.274Z,1010.91
2023-07-14T07:45:45.628Z,1011.02
2023-07-14T07:46:46.003Z,1010.90
2023-07-14T07:47:46.197Z,1010.89
2023-07-14T07:48:46.470Z,1010.87
2023-07-14T07:49:46.777Z,1010.85
2023-07-14T07:50:47.088Z,1010.77
2023-07-14T07:51:47.399Z,1010.75
2023-07-14T07:52:47.737Z,1010.80
2023-07-14T07:53:48.053Z,1010.76
2023-07-14T07:54:48.346Z,1010.74
2023-07-14T07:55:48.655Z,1010.74
2023-07-14T07:56:48.971Z,1010.69
2023-07-14T07:57:49.285Z,1010.72
2023-07-14T07:58:49.623Z,1010.67
2023-07-14T07:59:49.911Z,1010.71
2023-07-14T08:00:50.231Z,1010.70
2023-07-14T08:01:50.643Z,1010.64
2023-07-14T08:02:50.868Z,1010.60
2023-07-14T08:03:51.126Z,1010.65
2023-07-14T08:04:51.455Z,1010.62
2023-07-14T08:05:51.567Z,1010.62
2023-07-14T08:06:51.894Z,1010.61
2023-07-14T08:07:52.202Z,1010.57
2023-07-14T08:08:52.504Z,1010.51
2023-07-14T08:09:52.817Z,1010.50
2023-07-14T08:10:53.149Z,1010.54
2023-07-14T08:11:53.493Z,1010.52
2023-07-14T08:12:53.864Z,1010.53
2023-07-14T08:13:54.142Z,1010.54
2023-07-14T08:14:54.464Z,1010.57
2023-07-14T08:15:54.808Z,1010.59
2023-07-14T08:16:55.057Z,1010.51
2023-07-14T08:17:55.395Z,1010.51
2023-07-14T08:18:55.603Z,1010.47
2023-07-14T08:19:55.912Z,1010.47
2023-07-14T08:20:56.231Z,1010.48
2023-07-14T08:21:56.569Z,1010.44
2023-07-14T08:22:56.921Z,1010.41
2023-07-14T08:23:57.204Z,1010.42
2023-07-14T08:24:57.456Z,1010.44
2023-07-14T08:25:57.773Z,1010.35
2023-07-14T08:26:58.103Z,1010.38
2023-07-14T08:27:58.416Z,1010.37
2023-07-14T08:28:58.737Z,1010.38
2023-07-14T08:29:59.052Z,1010.42
2023-07-14T08:30:59.362Z,1010.45
2023-07-14T08:31:59.710Z,1010.43
2023-07-14T08:32:59.949Z,1010.43
2023-07-14T08:34:00.246Z,1010.43
2023-07-14T08:35:00.569Z,1010.32
2023-07-14T08:36:00.886Z,1010.42
2023-07-14T08:37:01.217Z,1010.38
2023-07-14T08:38:01.531Z,1010.44
2023-07-14T08:39:01.830Z,1010.48
2023-07-14T08:40:02.152Z,1010.50
2023-07-14T08:41:02.454Z,1010.39
2023-07-14T08:42:02.787Z,1010.40
2023-07-14T08:43:03.108Z,1010.37
2023-07-14T08:44:03.419Z,1010.38
2023-07-14T08:45:03.748Z,1010.36
2023-07-14T08:46:04.208Z,1010.34
2023-07-14T08:47:04.353Z,1010.42
2023-07-14T08:48:04.693Z,1010.33
2023-07-14T08:49:04.971Z,1010.28
2023-07-14T08:50:05.300Z,1010.25
2023-07-14T08:51:05.613Z,1010.25
2023-07-14T08:52:05.918Z,1010.23
2023-07-14T08:53:06.219Z,1010.22
2023-07-14T08:54:06.516Z,1010.21
2023-07-14T08:55:06.823Z,1010.12
2023-07-14T08:56:07.118Z,1010.17
2023-07-14T08:57:07.457Z,1010.13
2023-07-14T08:58:07.746Z,1010.15
2023-07-14T08:59:08.060Z,1010.12
2023-07-14T09:00:08.331Z,1010.11
2023-07-14T09:01:08.646Z,1010.11
2023-07-14T09:02:09.042Z,1010.12
2023-07-14T09:03:09.253Z,1010.08
2023-07-14T09:04:09.574Z,1010.09
2023-07-14T09:05:09.810Z,1010.05
2023-07-14T09:06:10.225Z,1010.09
2023-07-14T09:07:10.458Z,1010.05
2023-07-14T09:08:10.738Z,1010.00
2023-07-14T09:09:11.035Z,1010.01
2023-07-14T09:10:11.363Z,1010.00
2023-07-14T09:11:11.706Z,1009.96
2023-07-14T09:12:11.989Z,1009.99
2023-07-14T09:13:12.290Z,1009.94
2023-07-14T09:14:12.584Z,1009.95
2023-07-14T09:15:12.915Z,1009.96
2023-07-14T09:16:14.398Z,1009.90
2023-07-14T09:17:13.508Z,1009.90
2023-07-14T09:18:13.989Z,1009.95
2023-07-14T09:19:14.137Z,1009.87
2023-07-14T09:20:14.438Z,1009.87
2023-07-14T09:21:14.744Z,1009.88
2023-07-14T09:22:15.042Z,1009.88
2023-07-14T09:23:15.345Z,1009.84
2023-07-14T09:24:15.659Z,1009.87
2023-07-14T09:25:15.959Z,1009.85
2023-07-14T09:26:16.477Z,1009.88
2023-07-14T09:27:16.564Z,1009.80
2023-07-14T09:28:16.835Z,1009.84
2023-07-14T09:29:17.135Z,1009.81
2023-07-14T09:30:17.450Z,1009.87
2023-07-14T09:31:17.813Z,1009.84
2023-07-14T09:32:17.987Z,1009.86
2023-07-14T09:33:18.285Z,1009.91
2023-07-14T09:34:18.601Z,1009.91
2023-07-14T09:35:18.888Z,1009.80
2023-07-14T09:36:19.202Z,1009.81
2023-07-14T09:37:19.539Z,1009.79
2023-07-14T09:38:19.796Z,1009.79
2023-07-14T09:39:20.104Z,1009.79
2023-07-14T09:40:20.712Z,1009.77
2023-07-14T09:41:20.719Z,1009.76
2023-07-14T09:42:21.065Z,1009.79
2023-07-14T09:43:21.328Z,1009.75
2023-07-14T09:44:21.626Z,1009.68
2023-07-14T09:45:21.939Z,1009.69
2023-07-14T09:46:22.304Z,1009.70
2023-07-14T09:47:22.640Z,1009.81
2023-07-14T09:48:22.839Z,1009.74
2023-07-14T09:49:23.157Z,1009.74
2023-07-14T09:50:23.461Z,1009.74
2023-07-14T09:51:23.763Z,1009.73
2023-07-14T09:52:24.074Z,1009.76
2023-07-14T09:53:24.384Z,1009.73
2023-07-14T09:54:24.690Z,1009.71
2023-07-14T09:55:25.018Z,1009.69
2023-07-14T09:56:25.328Z,1009.68
2023-07-14T09:57:38.452Z,1009.67
2023-07-14T09:58:26.948Z,1009.67
2023-07-14T09:59:26.255Z,1009.66
2023-07-14T10:00:26.571Z,1009.59
2023-07-14T10:01:26.935Z,1009.60
2023-07-14T10:02:27.228Z,1009.59
2023-07-14T10:03:42.026Z,1009.59
2023-07-14T10:04:28.838Z,1009.55
2023-07-14T10:05:28.016Z,1009.52
2023-07-14T10:06:28.304Z,1009.51
2023-07-14T10:07:28.619Z,1009.52
2023-07-14T10:08:28.916Z,1009.53
2023-07-14T10:09:29.204Z,1009.49
2023-07-14T10:10:29.517Z,1009.53
2023-07-14T10:11:29.831Z,1009.46
2023-07-14T10:12:30.105Z,1009.48
2023-07-14T10:13:30.428Z,1009.42
2023-07-14T10:14:30.734Z,1009.46
2023-07-14T10:15:31.027Z,1009.46
2023-07-14T10:16:31.320Z,1009.42
2023-07-14T10:17:31.642Z,1009.44
2023-07-14T10:18:32.119Z,1009.42
2023-07-14T10:19:32.155Z,1009.41
2023-07-14T10:20:32.450Z,1009.42
2023-07-14T10:21:32.743Z,1009.37
2023-07-14T10:22:33.160Z,1009.31
2023-07-14T10:23:33.302Z,1009.36
2023-07-14T10:24:33.599Z,1009.32
2023-07-14T10:25:33.884Z,1009.32
2023-07-14T10:26:34.185Z,1009.32
2023-07-14T10:27:34.618Z,1009.22
2023-07-14T10:28:34.832Z,1009.14
2023-07-14T10:29:35.122Z,1009.19
2023-07-14T10:30:35.413Z,1009.17
2023-07-14T10:31:35.767Z,1009.15
2023-07-14T10:32:36.000Z,1009.09
2023-07-14T10:33:36.311Z,1009.09
2023-07-14T10:34:36.585Z,1009.06
2023-07-14T10:35:37.096Z,1009.03
2023-07-14T10:36:37.183Z,1009.03
2023-07-14T10:37:37.511Z,1008.99
2023-07-14T10:38:37.848Z,1009.04
2023-07-14T10:39:38.151Z,1009.02
2023-07-14T10:40:38.469Z,1009.03
2023-07-14T10:41:38.778Z,1009.06
2023-07-14T10:42:39.046Z,1008.98
2023-07-14T10:43:39.356Z,1008.93
2023-07-14T10:44:39.667Z,1008.97
2023-07-14T10:45:39.964Z,1008.91
2023-07-14T10:46:40.319Z,1008.92
2023-07-14T10:47:40.527Z,1008.90
2023-07-14T10:48:40.803Z,1008.92
2023-07-14T10:49:41.096Z,1008.92
2023-07-14T10:50:41.393Z,1008.93
2023-07-14T10:51:41.683Z,1008.95
2023-07-14T10:52:41.978Z,1008.88
2023-07-14T10:53:42.304Z,1008.82
2023-07-14T10:54:42.598Z,1008.81
2023-07-14T10:55:42.900Z,1008.87
2023-07-14T10:56:43.203Z,1008.86
2023-07-14T10:57:43.503Z,1008.86
2023-07-14T10:58:43.816Z,1008.80
2023-07-14T10:59:44.125Z,1008.75
2023-07-14T11:00:44.423Z,1008.73
2023-07-14T11:01:44.762Z,1008.67
2023-07-14T11:02:45.110Z,1008.66
2023-07-14T11:03:45.493Z,1008.64
2023-07-14T11:04:45.673Z,1008.64
2023-07-14T11:05:45.963Z,1008.57
2023-07-14T11:06:46.281Z,1008.59
2023-07-14T11:07:46.835Z,1008.53
2023-07-14T11:08:46.813Z,1008.51
2023-07-14T11:09:47.109Z,1008.48
2023-07-14T11:10:47.450Z,1008.43
2023-07-14T11:11:47.714Z,1008.45
2023-07-14T11:12:48.318Z,1008.38
2023-07-14T11:13:48.363Z,1008.35
2023-07-14T11:14:48.693Z,1008.34
2023-07-14T11:15:48.980Z,1008.37
2023-07-14T11:16:49.336Z,1008.33
2023-07-14T11:17:49.567Z,1008.29
2023-07-14T11:18:49.744Z,1008.22
2023-07-14T11:19:50.049Z,1008.25
2023-07-14T11:20:50.342Z,1008.21
2023-07-14T11:21:50.634Z,1008.21
2023-07-14T11:22:50.985Z,1008.25
2023-07-14T11:23:51.163Z,1008.25
2023-07-14T11:24:51.450Z,1008.25
2023-07-14T11:25:51.751Z,1008.18
2023-07-14T11:26:52.057Z,1008.16
2023-07-14T11:27:52.386Z,1008.13
2023-07-14T11:28:52.734Z,1008.10
2023-07-14T11:29:52.998Z,1008.01
2023-07-14T11:30:53.297Z,1007.99
2023-07-14T11:31:53.700Z,1008.01
2023-07-14T11:32:53.878Z,1007.98
2023-07-14T11:33:54.135Z,1007.97
2023-07-14T11:34:54.437Z,1007.88
2023-07-14T11:35:54.759Z,1007.97
2023-07-14T11:36:55.054Z,1007.93
2023-07-14T11:37:55.357Z,1007.97
2023-07-14T11:38:55.656Z,1008.01
2023-07-14T11:39:55.962Z,1008.02
2023-07-14T11:40:56.256Z,1007.96
2023-07-14T11:41:56.549Z,1007.94
2023-07-14T11:42:56.870Z,1007.96
2023-07-14T11:43:57.153Z,1007.97
2023-07-14T11:44:57.461Z,1007.96
2023-07-14T11:45:57.813Z,1007.95
2023-07-14T11:46:57.993Z,1007.91
2023-07-14T11:47:58.361Z,1007.88
2023-07-14T11:48:58.653Z,1007.87
2023-07-14T11:49:58.929Z,1007.86
2023-07-14T11:50:59.239Z,1007.89
2023-07-14T11:51:59.548Z,1007.88
2023-07-14T11:52:59.871Z,1007.82
2023-07-14T11:54:00.176Z,1007.89
2023-07-14T11:55:00.468Z,1007.86
2023-07-14T11:56:00.759Z,1007.91
2023-07-14T11:57:01.139Z,1007.87
2023-07-14T11:58:01.404Z,1007.87
2023-07-14T11:59:01.724Z,1007.86
2023-07-14T12:00:02.053Z,1007.78
2023-07-14T12:01:02.314Z,1007.77
2023-07-14T12:02:02.663Z,1007.73
2023-07-14T12:03:03.027Z,1007.73
2023-07-14T12:04:03.312Z,1007.71
2023-07-14T12:05:03.619Z,1007.69
2023-07-14T12:06:03.879Z,1007.59
2023-07-14T12:07:04.183Z,1007.53
2023-07-14T12:08:04.548Z,1007.53
2023-07-14T12:09:04.809Z,1007.53